Steffenville, Missouri
Current Conditions -  °F | °C
As of 9:55 AM on Saturday 22 Nov 2014 (Local Time) from KIRK Reporting Station
Overcast Overcast  
Wind Chill: 54°   Ceiling: 1400
Heat Index: 54°   Visibility: 10mi
Dew Point: 49°   Wind: 12mph
Humidity: 83%   Direction: 210°SSW
Pressure: 29.95"   Gusts: NA
Location:  40.1039°N, 91.9128°W
Report Text: KIRK 221555Z AUTO 21010KT 10SM OVC014 12/09 A2995 RMK AO2 SLP150 T01220094
Loading
Personal Weather Stations






























Interactive Weather Map New forecast layout! Learn more

10-Day Weather Forecast

Advertisements
Track Severe Weather on mobile